Main page
METAR-TAF:

METAR-TAF

Airports :

Bratsk Airport

Bratsk, Russia

latitude: 56-22-15N, longitude: 101-41-55E, elevation: 490 m

Current weather observation

The report was made 40 minutes ago, at 16:00 UTC
Wind 4 kt from the East
Temperature 11°C
Humidity 82%
Pressure 1011 hPa
Visibility 10 km or more

METAR: UIBB 221600Z AUTO 08002MPS 9999 // NSC 11/08 Q1011 RMK QFE716/0954

Time: 00:40 (16:40 UTC)

Forecast

The report was made 2 hours and 40 minutes ago, at 14:00 UTC
Forecast valid from 22 at 15 UTC to 23 at 15 UTC
Wind 6 kt from the East/Northeast
Visibility 10 km or more
Scattered clouds at a height of 2000 ft, Cumulonimbus.

TAF: UIBB 221400Z 2215/2315 06003MPS 9999 SCT020CB

Weather observations and forecasts of more than 4000 airports (METAR and TAF reports).

The available stations are represented by yellow and red dots on the map.

Hover mouse over dot to see the name of the station.

Then click to see weather observations and forecasts.

To change the map : click on the green buttons with a black cross to zoom in, on the green button with a dash to zoom out, or on the green arrows for adjacent maps.


METAR-TAF: